Time;durP1;ratioP1;P1;durP2;ratioP2;P2;SDS_P1;SDS_P2;PMS_P1;PMS_P2;Temp;Humidity;BMP_temperature;BMP_pressure;BME280_temperature;BME280_humidity;BME280_pressure;Samples;Min_cycle;Max_cycle;Signal;HPM_P1;HPM_P2
2021/10/07 00:00:12;;;;;;;2.70;2.00;;;;;20.00;101103.00;;;;2095770;28;20633;-54
2021/10/07 00:01:12;;;;;;;2.50;2.30;;;;;20.00;101105.00;;;;2095519;28;20557;-56
2021/10/07 00:02:12;;;;;;;2.10;1.90;;;;;20.00;101113.00;;;;2095720;28;20208;-57
2021/10/07 00:03:13;;;;;;;2.23;2.13;;;;;20.00;101110.00;;;;2088043;28;20209;-57
2021/10/07 00:04:13;;;;;;;2.07;1.97;;;;;20.00;101111.00;;;;2087471;28;20289;-56
2021/10/07 00:05:13;;;;;;;2.57;1.93;;;;;20.00;101115.00;;;;2088377;28;20209;-57
2021/10/07 00:06:14;;;;;;;1.97;1.83;;;;;20.00;101107.00;;;;2094445;28;20201;-54
2021/10/07 00:07:15;;;;;;;2.30;2.10;;;;;20.00;101116.00;;;;2091530;28;20322;-55
2021/10/07 00:08:15;;;;;;;2.00;1.90;;;;;20.00;101124.00;;;;2089167;28;20200;-55
2021/10/07 00:09:15;;;;;;;1.90;1.70;;;;;20.00;101113.00;;;;2086826;28;20223;-56
2021/10/07 00:10:16;;;;;;;1.80;1.70;;;;;20.00;101124.00;;;;2087393;28;20359;-54
2021/10/07 00:11:16;;;;;;;2.50;2.30;;;;;20.00;101122.00;;;;2087485;28;20216;-56
2021/10/07 00:12:17;;;;;;;1.80;1.70;;;;;20.10;101127.00;;;;2086831;28;20212;-56
2021/10/07 00:13:17;;;;;;;2.03;1.93;;;;;20.10;101126.00;;;;2087078;28;20240;-56
2021/10/07 00:14:17;;;;;;;2.10;1.90;;;;;20.00;101130.00;;;;2087099;28;20200;-56
2021/10/07 00:15:18;;;;;;;1.93;1.83;;;;;20.10;101131.00;;;;2086782;28;20205;-56
2021/10/07 00:16:18;;;;;;;2.37;2.20;;;;;20.10;101132.00;;;;2087203;28;20217;-55
2021/10/07 00:17:18;;;;;;;2.10;1.90;;;;;20.00;101135.00;;;;2086922;28;20209;-55
2021/10/07 00:18:19;;;;;;;1.87;1.77;;;;;20.10;101140.00;;;;2086881;28;20606;-56
2021/10/07 00:19:19;;;;;;;2.60;2.40;;;;;20.00;101138.00;;;;2085621;28;20556;-57
2021/10/07 00:20:20;;;;;;;2.20;2.10;;;;;20.00;101141.00;;;;2086381;28;20235;-56
2021/10/07 00:21:20;;;;;;;2.60;2.40;;;;;20.00;101141.00;;;;2086957;28;20205;-55
2021/10/07 00:22:21;;;;;;;2.10;2.00;;;;;20.00;101139.00;;;;2087375;28;20227;-55
2021/10/07 00:23:25;;;;;;;1.87;1.77;;;;;20.00;101137.00;;;;2087503;28;20235;-56
2021/10/07 00:24:26;;;;;;;2.30;2.20;;;;;20.00;101141.00;;;;2087288;28;20262;-55
2021/10/07 00:25:26;;;;;;;2.50;2.30;;;;;20.00;101137.00;;;;2087319;28;20282;-57
2021/10/07 00:26:26;;;;;;;1.97;1.83;;;;;20.00;101139.00;;;;2087431;28;20627;-54
2021/10/07 00:27:27;;;;;;;2.30;2.10;;;;;20.00;101144.00;;;;2087428;28;20213;-55
2021/10/07 00:28:31;;;;;;;2.30;2.10;;;;;20.00;101144.00;;;;2087491;28;20701;-55
2021/10/07 00:29:45;;;;;;;1.88;1.77;;;;;20.10;101147.00;;;;2086495;28;20242;-56
2021/10/07 00:30:46;;;;;;;2.33;2.08;;;;;20.10;101149.00;;;;2078691;28;20221;-54
2021/10/07 00:31:50;;;;;;;2.93;2.30;;;;;20.10;101154.00;;;;2078937;28;20296;-56
2021/10/07 00:36:11;;;;;;;2.42;2.08;;;;;20.00;101158.00;;;;2079255;28;20435;-55
2021/10/07 00:39:14;;;;;;;2.20;2.10;;;;;20.00;101165.00;;;;2077982;28;20582;-55
2021/10/07 00:40:14;;;;;;;2.20;2.10;;;;;20.00;101170.00;;;;2079100;28;20225;-57
2021/10/07 00:41:15;;;;;;;2.40;2.20;;;;;20.00;101170.00;;;;2078312;28;20244;-55
2021/10/07 00:42:15;;;;;;;2.60;2.33;;;;;20.00;101164.00;;;;2079192;28;20209;-54
2021/10/07 00:43:16;;;;;;;2.40;2.20;;;;;20.00;101162.00;;;;2079131;28;20232;-57
2021/10/07 00:44:16;;;;;;;2.80;2.50;;;;;20.00;101161.00;;;;2079051;28;20283;-56
2021/10/07 00:45:17;;;;;;;2.17;2.07;;;;;20.00;101167.00;;;;2079229;28;20368;-56
2021/10/07 00:46:17;;;;;;;2.47;2.27;;;;;20.00;101164.00;;;;2078961;28;20212;-54
2021/10/07 00:47:17;;;;;;;2.67;2.47;;;;;20.00;101162.00;;;;2077554;28;20812;-55
2021/10/07 00:48:18;;;;;;;2.73;2.53;;;;;20.00;101164.00;;;;2079115;28;20221;-56
2021/10/07 00:49:19;;;;;;;2.50;2.30;;;;;20.00;101163.00;;;;2078430;28;20316;-56
2021/10/07 00:50:19;;;;;;;3.60;2.20;;;;;20.00;101160.00;;;;2079101;28;20231;-54
2021/10/07 00:51:20;;;;;;;2.83;2.50;;;;;20.00;101160.00;;;;2078505;28;20224;-56
2021/10/07 00:52:20;;;;;;;2.40;2.20;;;;;20.00;101162.00;;;;2077814;28;20551;-56
2021/10/07 00:53:20;;;;;;;2.10;2.00;;;;;20.00;101164.00;;;;2078853;28;20299;-56
2021/10/07 00:54:22;;;;;;;1.90;1.80;;;;;20.00;101167.00;;;;2077650;28;20213;-56
2021/10/07 00:55:23;;;;;;;2.45;2.35;;;;;20.00;101169.00;;;;2081244;28;20209;-56
2021/10/07 00:56:23;;;;;;;2.47;2.27;;;;;20.00;101166.00;;;;2086646;28;20209;-56
2021/10/07 00:57:24;;;;;;;2.33;2.20;;;;;20.00;101167.00;;;;2085489;28;20311;-55
2021/10/07 00:58:24;;;;;;;2.20;2.10;;;;;20.00;101174.00;;;;2086486;28;20591;-56
2021/10/07 00:59:25;;;;;;;2.47;2.27;;;;;20.00;101172.00;;;;2086106;28;20244;-56
2021/10/07 01:00:25;;;;;;;2.73;2.53;;;;;20.00;101167.00;;;;2086528;28;20209;-56
2021/10/07 01:01:26;;;;;;;2.33;2.13;;;;;20.00;101173.00;;;;2086470;28;20216;-55
2021/10/07 01:02:26;;;;;;;2.57;2.37;;;;;20.00;101179.00;;;;2086448;28;20232;-56
2021/10/07 01:03:28;;;;;;;2.20;2.10;;;;;20.00;101174.00;;;;2087129;28;20236;-56
2021/10/07 01:04:28;;;;;;;2.47;2.28;;;;;20.00;101180.00;;;;2087272;28;20299;-55
2021/10/07 01:05:29;;;;;;;2.67;2.47;;;;;20.00;101180.00;;;;2083931;28;20220;-56
2021/10/07 01:06:30;;;;;;;1.97;1.87;;;;;20.00;101170.00;;;;2072473;28;20217;-56
2021/10/07 01:07:31;;;;;;;2.35;2.15;;;;;20.00;101182.00;;;;2071904;28;20305;-55
2021/10/07 01:08:31;;;;;;;2.60;2.50;;;;;20.00;101174.00;;;;2080054;28;20217;-55
2021/10/07 01:09:31;;;;;;;2.27;2.07;;;;;20.00;101184.00;;;;2077621;28;20244;-56
2021/10/07 01:10:32;;;;;;;2.70;2.50;;;;;20.00;101178.00;;;;2078311;28;20291;-56
2021/10/07 01:11:32;;;;;;;2.60;2.40;;;;;20.00;101188.00;;;;2078960;28;20649;-55
2021/10/07 01:12:33;;;;;;;2.93;2.70;;;;;20.00;101185.00;;;;2078867;28;20228;-56
2021/10/07 01:13:37;;;;;;;2.30;2.10;;;;;20.00;101188.00;;;;2078703;28;20222;-56
2021/10/07 01:14:47;;;;;;;3.60;2.60;;;;;20.00;101190.00;;;;2078989;28;20237;-55
2021/10/07 01:15:47;;;;;;;2.95;2.47;;;;;20.00;101184.00;;;;2078671;28;20295;-56
2021/10/07 01:16:47;;;;;;;2.60;2.40;;;;;20.00;101185.00;;;;2078750;28;20303;-56
2021/10/07 01:17:48;;;;;;;2.40;2.20;;;;;20.00;101190.00;;;;2078985;28;20214;-55
2021/10/07 01:18:48;;;;;;;2.40;2.20;;;;;20.00;101184.00;;;;2078366;28;20304;-54
2021/10/07 01:19:51;;;;;;;2.70;2.50;;;;;20.00;101185.00;;;;2078539;28;20221;-56
2021/10/07 01:20:51;;;;;;;2.50;2.33;;;;;20.00;101188.00;;;;2078179;28;20217;-56
2021/10/07 01:21:51;;;;;;;2.57;2.37;;;;;20.00;101188.00;;;;2078229;28;20221;-56
2021/10/07 01:22:52;;;;;;;2.40;2.20;;;;;20.00;101188.00;;;;2078776;28;20220;-56
2021/10/07 01:23:52;;;;;;;2.33;2.20;;;;;20.00;101188.00;;;;2078833;28;20214;-55
2021/10/07 01:24:52;;;;;;;2.07;1.97;;;;;20.00;101192.00;;;;2078852;28;20205;-55
2021/10/07 01:25:53;;;;;;;2.30;2.10;;;;;20.00;101194.00;;;;2085260;28;20228;-56
2021/10/07 01:26:53;;;;;;;2.60;2.40;;;;;20.00;101186.00;;;;2087047;28;20561;-55
2021/10/07 01:27:55;;;;;;;2.40;2.30;;;;;20.10;101191.00;;;;2087076;28;20213;-56
2021/10/07 01:28:56;;;;;;;2.63;2.42;;;;;20.10;101183.00;;;;2078090;28;20221;-54
2021/10/07 01:29:58;;;;;;;2.57;2.37;;;;;20.00;101182.00;;;;2086048;28;20679;-56
2021/10/07 01:30:59;;;;;;;2.33;2.22;;;;;20.00;101192.00;;;;2087233;28;20245;-55
2021/10/07 01:32:00;;;;;;;2.57;2.37;;;;;20.00;101182.00;;;;2085305;28;20574;-56
2021/10/07 01:33:01;;;;;;;2.50;2.30;;;;;20.00;101184.00;;;;2078882;28;20267;-55
2021/10/07 01:34:01;;;;;;;2.43;2.20;;;;;20.00;101184.00;;;;2078919;28;20217;-56
2021/10/07 01:35:07;;;;;;;2.20;2.03;;;;;20.00;101190.00;;;;2084282;28;20213;-56
2021/10/07 01:36:07;;;;;;;2.92;2.25;;;;;20.00;101188.00;;;;2080803;28;20212;-55
2021/10/07 01:37:08;;;;;;;2.13;1.93;;;;;20.00;101196.00;;;;2080061;28;20300;-56
2021/10/07 01:38:08;;;;;;;2.30;2.20;;;;;20.00;101185.00;;;;2080200;28;20209;-57
2021/10/07 01:39:08;;;;;;;2.20;2.00;;;;;20.00;101190.00;;;;2078400;28;20229;-56
2021/10/07 01:40:11;;;;;;;2.30;2.20;;;;;20.00;101190.00;;;;2081206;28;20300;-56
2021/10/07 01:41:12;;;;;;;2.60;2.40;;;;;20.00;101189.00;;;;2086218;28;20216;-57
2021/10/07 01:42:12;;;;;;;2.17;2.03;;;;;20.00;101194.00;;;;2086018;28;20213;-58
2021/10/07 01:43:13;;;;;;;2.20;2.00;;;;;20.10;101182.00;;;;2086884;28;20308;-58
2021/10/07 01:44:13;;;;;;;2.70;2.50;;;;;20.00;101176.00;;;;2086951;28;20258;-55
2021/10/07 01:45:14;;;;;;;2.50;2.23;;;;;20.00;101180.00;;;;2086900;28;20291;-57
2021/10/07 01:46:15;;;;;;;2.20;2.00;;;;;20.00;101181.00;;;;2086934;28;20221;-57
2021/10/07 01:47:15;;;;;;;2.50;2.30;;;;;20.00;101196.00;;;;2086977;28;20459;-54
2021/10/07 01:48:16;;;;;;;2.60;2.40;;;;;20.00;101195.00;;;;2086381;28;20204;-56
2021/10/07 01:49:17;;;;;;;2.40;2.20;;;;;20.00;101189.00;;;;2077475;28;20217;-56
2021/10/07 01:50:17;;;;;;;2.27;2.07;;;;;20.00;101195.00;;;;2078809;28;20448;-56
2021/10/07 01:51:17;;;;;;;2.47;2.10;;;;;20.00;101196.00;;;;2078707;28;20284;-54
2021/10/07 01:52:18;;;;;;;2.87;2.67;;;;;20.00;101200.00;;;;2078554;28;20869;-56
2021/10/07 01:53:18;;;;;;;2.70;2.50;;;;;20.00;101185.00;;;;2078863;28;20217;-56
2021/10/07 01:54:19;;;;;;;2.20;2.10;;;;;20.00;101200.00;;;;2078881;28;20304;-56
2021/10/07 01:55:19;;;;;;;2.40;2.20;;;;;20.00;101202.00;;;;2078909;28;20213;-56
2021/10/07 01:56:20;;;;;;;2.17;1.98;;;;;20.00;101208.00;;;;2077899;28;20788;-56
2021/10/07 01:57:20;;;;;;;2.27;2.13;;;;;20.00;101202.00;;;;2077558;28;20209;-56
2021/10/07 01:58:21;;;;;;;2.50;2.30;;;;;20.00;101197.00;;;;2078936;28;20213;-56
2021/10/07 01:59:22;;;;;;;2.33;2.13;;;;;20.00;101198.00;;;;2079785;28;20679;-55
2021/10/07 02:00:22;;;;;;;2.80;2.57;;;;;20.00;101203.00;;;;2084278;28;20213;-56
2021/10/07 02:01:22;;;;;;;2.37;2.20;;;;;20.00;101202.00;;;;2080548;28;20297;-56
2021/10/07 02:02:23;;;;;;;2.20;2.10;;;;;20.00;101202.00;;;;2080251;28;20380;-56
2021/10/07 02:03:23;;;;;;;2.30;2.20;;;;;20.00;101203.00;;;;2082151;28;20218;-56
2021/10/07 02:04:23;;;;;;;2.00;1.90;;;;;20.00;101212.00;;;;2088547;28;20209;-57
2021/10/07 02:05:24;;;;;;;2.70;2.50;;;;;20.00;101200.00;;;;2083572;28;20212;-54
2021/10/07 02:06:25;;;;;;;2.67;2.47;;;;;20.00;101207.00;;;;2082275;28;20602;-56
2021/10/07 02:07:25;;;;;;;2.03;1.93;;;;;20.00;101222.00;;;;2083989;28;20320;-55
2021/10/07 02:08:26;;;;;;;2.40;2.20;;;;;20.00;101216.00;;;;2081406;28;20460;-56
2021/10/07 02:09:26;;;;;;;3.47;2.93;;;;;20.00;101213.00;;;;2079733;28;20596;-54
2021/10/07 02:10:26;;;;;;;2.40;2.20;;;;;20.00;101220.00;;;;2080019;28;20219;-55
2021/10/07 02:11:27;;;;;;;2.40;2.20;;;;;20.00;101217.00;;;;2079476;28;20216;-57
2021/10/07 02:12:27;;;;;;;2.30;2.20;;;;;20.00;101215.00;;;;2080246;28;20217;-56
2021/10/07 02:13:28;;;;;;;2.37;2.20;;;;;20.00;101225.00;;;;2080084;28;20206;-55
2021/10/07 02:14:28;;;;;;;2.37;2.20;;;;;20.00;101219.00;;;;2079624;28;20214;-55
2021/10/07 02:15:29;;;;;;;2.40;2.20;;;;;20.00;101218.00;;;;2080205;28;20210;-56
2021/10/07 02:16:30;;;;;;;2.47;2.27;;;;;20.00;101218.00;;;;2080167;28;20702;-56
2021/10/07 02:17:30;;;;;;;2.25;2.13;;;;;20.00;101182.00;;;;2084235;28;20228;-56
2021/10/07 02:18:31;;;;;;;2.10;2.00;;;;;20.00;101211.00;;;;2080168;28;20766;-56
2021/10/07 02:19:32;;;;;;;2.60;2.40;;;;;20.00;101225.00;;;;2079270;28;20214;-56
2021/10/07 02:20:32;;;;;;;2.37;2.00;;;;;20.00;101221.00;;;;2079379;28;20216;-54
2021/10/07 02:21:32;;;;;;;2.00;1.90;;;;;20.00;101219.00;;;;2080167;28;20281;-55
2021/10/07 02:22:33;;;;;;;2.07;1.90;;;;;20.00;101221.00;;;;2080039;28;20233;-56
2021/10/07 02:23:33;;;;;;;2.53;2.33;;;;;20.00;101220.00;;;;2080033;28;20683;-56
2021/10/07 02:24:34;;;;;;;2.70;2.40;;;;;20.00;101226.00;;;;2079033;28;20218;-58
2021/10/07 02:25:34;;;;;;;2.77;2.57;;;;;20.00;101219.00;;;;2087449;28;20697;-56
2021/10/07 02:26:35;;;;;;;2.13;2.03;;;;;20.00;101223.00;;;;2087744;28;20265;-55
2021/10/07 02:27:35;;;;;;;2.10;1.90;;;;;20.00;101223.00;;;;2088356;28;20705;-55
2021/10/07 02:28:36;;;;;;;2.43;2.20;;;;;20.00;101227.00;;;;2088179;28;20835;-56
2021/10/07 02:29:36;;;;;;;2.30;2.10;;;;;20.00;101213.00;;;;2087894;28;20225;-56
2021/10/07 02:30:37;;;;;;;2.23;2.10;;;;;20.00;101231.00;;;;2088235;28;20217;-55
2021/10/07 02:31:37;;;;;;;2.13;2.03;;;;;20.00;101230.00;;;;2088245;28;20585;-56
2021/10/07 02:32:37;;;;;;;2.33;2.00;;;;;20.00;101230.00;;;;2084874;28;20214;-56
2021/10/07 02:33:38;;;;;;;2.60;2.40;;;;;20.00;101227.00;;;;2080166;28;20224;-57
2021/10/07 02:34:39;;;;;;;2.23;1.93;;;;;20.00;101229.00;;;;2084151;28;20217;-56
2021/10/07 02:35:40;;;;;;;2.43;2.23;;;;;20.00;101232.00;;;;2081229;28;20221;-54
2021/10/07 02:36:40;;;;;;;2.15;2.00;;;;;20.00;101225.00;;;;2080756;28;20221;-55
2021/10/07 02:37:42;;;;;;;2.00;1.90;;;;;20.00;101235.00;;;;2081202;28;20210;-57
2021/10/07 02:38:42;;;;;;;2.20;2.00;;;;;20.00;101254.00;;;;2080519;28;20300;-54
2021/10/07 02:39:43;;;;;;;2.40;2.20;;;;;20.00;101232.00;;;;2078844;28;20725;-55
2021/10/07 02:40:43;;;;;;;2.37;2.27;;;;;20.00;101232.00;;;;2079611;28;20629;-55
2021/10/07 02:41:43;;;;;;;2.23;2.13;;;;;20.00;101232.00;;;;2079126;28;20210;-55
2021/10/07 02:42:44;;;;;;;2.70;2.40;;;;;20.00;101232.00;;;;2079800;28;20228;-55
2021/10/07 02:43:44;;;;;;;2.40;2.20;;;;;20.00;101231.00;;;;2078444;28;20651;-55
2021/10/07 02:44:45;;;;;;;2.30;2.10;;;;;20.00;101235.00;;;;2078793;28;20225;-54
2021/10/07 02:45:45;;;;;;;2.30;2.10;;;;;20.00;101233.00;;;;2079573;28;20220;-53
2021/10/07 02:46:46;;;;;;;2.77;2.10;;;;;20.00;101239.00;;;;2082300;28;20268;-55
2021/10/07 02:47:46;;;;;;;2.17;2.07;;;;;20.00;101239.00;;;;2087365;28;20225;-55
2021/10/07 02:48:47;;;;;;;2.20;2.10;;;;;20.00;101243.00;;;;2087401;28;20299;-55
2021/10/07 02:49:47;;;;;;;3.17;2.73;;;;;20.00;101240.00;;;;2087829;28;20265;-54
2021/10/07 02:50:47;;;;;;;2.20;2.07;;;;;20.00;101234.00;;;;2087365;28;20216;-55
2021/10/07 02:51:48;;;;;;;2.00;1.90;;;;;20.00;101234.00;;;;2087946;28;20255;-55
2021/10/07 02:52:48;;;;;;;2.30;2.20;;;;;20.00;101235.00;;;;2088046;28;20216;-55
2021/10/07 02:53:49;;;;;;;2.10;2.00;;;;;20.00;101230.00;;;;2087876;28;20228;-56
2021/10/07 02:54:49;;;;;;;2.60;2.40;;;;;20.00;101222.00;;;;2087998;28;20686;-54
2021/10/07 02:55:49;;;;;;;2.33;2.13;;;;;20.00;101234.00;;;;2088123;28;20235;-55
2021/10/07 02:56:50;;;;;;;2.00;1.90;;;;;20.00;101234.00;;;;2085043;28;20228;-55
2021/10/07 02:57:51;;;;;;;2.43;2.23;;;;;20.00;101233.00;;;;2079899;28;21023;-56
2021/10/07 02:58:51;;;;;;;2.40;2.20;;;;;20.00;101237.00;;;;2079596;28;20270;-56
2021/10/07 02:59:51;;;;;;;2.80;2.50;;;;;20.00;101225.00;;;;2079728;28;20596;-55
2021/10/07 03:00:52;;;;;;;2.57;2.37;;;;;20.00;101241.00;;;;2079728;28;20217;-55
2021/10/07 03:01:52;;;;;;;2.30;2.10;;;;;20.00;101244.00;;;;2079637;28;20213;-55
2021/10/07 03:02:53;;;;;;;2.27;2.10;;;;;20.00;101240.00;;;;2079691;28;20269;-56
2021/10/07 03:03:53;;;;;;;2.10;2.00;;;;;20.00;101241.00;;;;2079572;28;20209;-58
2021/10/07 03:04:54;;;;;;;2.33;2.13;;;;;20.00;101245.00;;;;2079482;28;20300;-55
2021/10/07 03:05:54;;;;;;;2.33;2.13;;;;;20.00;101256.00;;;;2086465;28;20698;-56
2021/10/07 03:06:55;;;;;;;2.10;2.00;;;;;20.00;101251.00;;;;2081441;28;20292;-56
2021/10/07 03:07:55;;;;;;;2.13;2.00;;;;;20.00;101256.00;;;;2080901;28;20260;-55
2021/10/07 03:08:58;;;;;;;2.13;2.03;;;;;20.00;101257.00;;;;2079246;28;20444;-56
2021/10/07 03:09:58;;;;;;;1.73;1.60;;;;;20.00;101263.00;;;;2079182;28;20214;-55
2021/10/07 03:10:59;;;;;;;2.33;2.13;;;;;20.00;101259.00;;;;2079311;28;20592;-56
2021/10/07 03:11:59;;;;;;;2.70;2.50;;;;;20.00;101265.00;;;;2079777;28;20213;-57
2021/10/07 03:13:00;;;;;;;2.40;2.20;;;;;20.00;101266.00;;;;2079017;28;20323;-57
2021/10/07 03:14:00;;;;;;;2.00;1.90;;;;;20.00;101267.00;;;;2079816;28;20214;-55
2021/10/07 03:15:00;;;;;;;2.30;2.10;;;;;20.00;101267.00;;;;2079855;28;20214;-56
2021/10/07 03:16:01;;;;;;;1.90;1.80;;;;;20.00;101274.00;;;;2079708;28;20206;-55
2021/10/07 03:17:01;;;;;;;2.30;2.10;;;;;20.00;101274.00;;;;2079839;28;20236;-56
2021/10/07 03:18:01;;;;;;;2.10;2.00;;;;;20.00;101275.00;;;;2079765;28;20212;-57
2021/10/07 03:19:02;;;;;;;2.13;2.03;;;;;20.00;101270.00;;;;2079366;28;20202;-56
2021/10/07 03:20:06;;;;;;;2.20;2.10;;;;;20.00;101276.00;;;;2085685;28;20219;-55
2021/10/07 03:21:07;;;;;;;2.35;2.10;;;;;20.00;101280.00;;;;2086687;28;20240;-55
2021/10/07 03:22:07;;;;;;;2.40;2.20;;;;;20.00;101278.00;;;;2080472;28;20259;-56
2021/10/07 03:23:08;;;;;;;2.53;2.33;;;;;20.00;101286.00;;;;2079751;28;20225;-54
2021/10/07 03:24:08;;;;;;;2.30;2.10;;;;;20.00;101288.00;;;;2083871;28;20868;-55
2021/10/07 03:25:08;;;;;;;2.37;2.20;;;;;20.00;101285.00;;;;2083186;28;20769;-55
2021/10/07 03:26:09;;;;;;;2.00;1.90;;;;;20.00;101297.00;;;;2079625;28;20624;-55
2021/10/07 03:27:09;;;;;;;2.77;2.07;;;;;20.00;101280.00;;;;2085438;28;20213;-56
2021/10/07 03:28:10;;;;;;;2.00;1.90;;;;;20.00;101290.00;;;;2087887;28;20705;-56
2021/10/07 03:29:10;;;;;;;2.40;2.20;;;;;20.00;101292.00;;;;2087493;28;20309;-54
2021/10/07 03:30:10;;;;;;;2.17;2.07;;;;;20.00;101293.00;;;;2087869;28;20319;-56
2021/10/07 03:31:11;;;;;;;2.00;1.80;;;;;20.00;101294.00;;;;2087716;28;20205;-54
2021/10/07 03:32:11;;;;;;;2.00;1.90;;;;;20.00;101298.00;;;;2087502;28;20225;-55
2021/10/07 03:33:11;;;;;;;2.23;2.10;;;;;20.00;101292.00;;;;2087900;28;20213;-56
2021/10/07 03:34:12;;;;;;;2.27;2.07;;;;;20.00;101308.00;;;;2087703;28;20743;-56
2021/10/07 03:35:12;;;;;;;2.43;2.23;;;;;20.00;101308.00;;;;2084594;28;20279;-56
2021/10/07 03:36:13;;;;;;;2.43;2.07;;;;;20.00;101301.00;;;;2085982;28;20677;-56
2021/10/07 03:37:13;;;;;;;2.40;2.20;;;;;20.00;101303.00;;;;2080919;28;20301;-55
2021/10/07 03:38:14;;;;;;;2.53;2.33;;;;;20.00;101314.00;;;;2080529;28;20214;-56
2021/10/07 03:39:14;;;;;;;2.17;2.07;;;;;20.00;101304.00;;;;2085390;28;20227;-56
2021/10/07 03:40:14;;;;;;;2.50;2.30;;;;;20.00;101304.00;;;;2079592;28;20464;-56
2021/10/07 03:41:15;;;;;;;1.90;1.80;;;;;20.00;101313.00;;;;2087378;28;20697;-54
2021/10/07 03:42:15;;;;;;;2.20;1.90;;;;;20.00;101306.00;;;;2087791;28;20575;-56
2021/10/07 03:43:16;;;;;;;2.00;1.90;;;;;20.00;101311.00;;;;2087927;28;20224;-56
2021/10/07 03:44:16;;;;;;;2.50;2.30;;;;;20.00;101310.00;;;;2087954;28;20577;-56
2021/10/07 03:45:16;;;;;;;2.13;1.93;;;;;20.00;101316.00;;;;2081998;28;20228;-56
2021/10/07 03:46:17;;;;;;;1.87;1.67;;;;;20.00;101306.00;;;;2079386;28;20206;-56
2021/10/07 03:47:17;;;;;;;1.73;1.63;;;;;20.00;101312.00;;;;2079464;28;20209;-54
2021/10/07 03:48:17;;;;;;;1.80;1.70;;;;;20.00;101312.00;;;;2079688;28;20225;-56
2021/10/07 03:49:18;;;;;;;2.50;2.30;;;;;20.00;101309.00;;;;2079000;28;20233;-55
2021/10/07 03:50:18;;;;;;;2.47;2.27;;;;;20.00;101316.00;;;;2079128;28;20229;-56
2021/10/07 03:51:18;;;;;;;1.90;1.80;;;;;20.00;101313.00;;;;2079414;28;20228;-56
2021/10/07 03:52:19;;;;;;;2.30;2.20;;;;;20.00;101321.00;;;;2079207;28;20228;-56
2021/10/07 03:53:19;;;;;;;2.67;2.47;;;;;20.00;101317.00;;;;2079599;28;20228;-56
2021/10/07 03:54:19;;;;;;;2.50;2.30;;;;;20.00;101324.00;;;;2079583;28;20248;-54
2021/10/07 03:55:20;;;;;;;2.43;2.23;;;;;20.00;101317.00;;;;2079431;28;20225;-55
2021/10/07 03:56:20;;;;;;;2.50;2.30;;;;;20.00;101312.00;;;;2078395;28;20682;-56
2021/10/07 03:57:23;;;;;;;2.70;2.47;;;;;19.90;101311.00;;;;2079491;28;20221;-56
2021/10/07 03:58:23;;;;;;;2.10;2.00;;;;;19.80;101318.00;;;;2079044;28;20926;-55
2021/10/07 03:59:24;;;;;;;2.20;2.10;;;;;20.00;101322.00;;;;2079136;28;20217;-55
2021/10/07 04:00:24;;;;;;;2.20;2.00;;;;;20.00;101322.00;;;;2078766;28;20209;-56
2021/10/07 04:01:24;;;;;;;2.00;1.90;;;;;20.00;101321.00;;;;2078529;28;20622;-56
2021/10/07 04:02:25;;;;;;;2.90;2.70;;;;;20.00;101329.00;;;;2075987;28;20835;-57
2021/10/07 04:03:25;;;;;;;2.10;2.00;;;;;20.00;101324.00;;;;2078813;28;20221;-56
2021/10/07 04:04:26;;;;;;;2.30;2.10;;;;;20.00;101321.00;;;;2078880;28;20213;-55
2021/10/07 04:05:26;;;;;;;2.03;1.93;;;;;20.00;101327.00;;;;2080951;28;20222;-56
2021/10/07 04:06:27;;;;;;;2.20;2.00;;;;;20.00;101341.00;;;;2080642;28;20225;-56
2021/10/07 04:07:27;;;;;;;2.43;2.23;;;;;20.00;101326.00;;;;2079943;28;20240;-55
2021/10/07 04:08:27;;;;;;;3.10;2.40;;;;;20.00;101332.00;;;;2079083;28;20283;-56
2021/10/07 04:09:27;;;;;;;2.33;2.13;;;;;20.00;101339.00;;;;2083453;28;20217;-56
2021/10/07 04:10:28;;;;;;;2.00;1.90;;;;;20.00;101329.00;;;;2087271;28;20308;-54
2021/10/07 04:11:29;;;;;;;2.67;2.47;;;;;20.00;101333.00;;;;2086453;28;20205;-55
2021/10/07 04:12:29;;;;;;;2.20;2.00;;;;;20.00;101328.00;;;;2087088;28;20693;-55
2021/10/07 04:13:30;;;;;;;2.67;2.40;;;;;20.00;101330.00;;;;2079799;28;20240;-56
2021/10/07 04:14:31;;;;;;;2.60;2.40;;;;;20.00;101334.00;;;;2077489;28;20218;-56
2021/10/07 04:15:31;;;;;;;2.57;2.37;;;;;20.00;101344.00;;;;2078211;28;20213;-55
2021/10/07 04:16:32;;;;;;;2.00;1.90;;;;;19.90;101343.00;;;;2078398;28;20221;-56
2021/10/07 04:17:32;;;;;;;4.37;2.00;;;;;20.00;101342.00;;;;2078427;28;20208;-57
2021/10/07 04:18:33;;;;;;;2.43;2.23;;;;;20.00;101344.00;;;;2078850;28;20305;-57
2021/10/07 04:19:33;;;;;;;2.23;2.10;;;;;20.00;101340.00;;;;2079100;28;20201;-57
2021/10/07 04:20:33;;;;;;;1.83;1.73;;;;;19.90;101334.00;;;;2078753;28;20209;-56
2021/10/07 04:21:34;;;;;;;2.40;2.20;;;;;19.90;101350.00;;;;2078980;28;20715;-55
2021/10/07 04:22:34;;;;;;;2.07;1.93;;;;;19.90;101346.00;;;;2077186;28;21068;-56
2021/10/07 04:23:34;;;;;;;2.20;2.03;;;;;20.00;101342.00;;;;2079439;28;20218;-54
2021/10/07 04:24:35;;;;;;;2.33;2.23;;;;;20.00;101348.00;;;;2079660;28;20217;-54
2021/10/07 04:25:35;;;;;;;2.50;2.30;;;;;20.00;101351.00;;;;2082985;28;20256;-55
2021/10/07 04:26:35;;;;;;;2.40;2.20;;;;;20.00;101347.00;;;;2078756;28;20209;-56
2021/10/07 04:27:36;;;;;;;2.53;2.33;;;;;20.00;101350.00;;;;2079348;28;20300;-56
2021/10/07 04:28:36;;;;;;;2.20;2.10;;;;;20.00;101355.00;;;;2079206;28;20209;-57
2021/10/07 04:29:36;;;;;;;2.43;2.20;;;;;20.00;101355.00;;;;2078247;28;20272;-54
2021/10/07 04:30:37;;;;;;;2.50;2.30;;;;;20.00;101357.00;;;;2078825;28;20746;-55
2021/10/07 04:31:38;;;;;;;2.33;2.13;;;;;20.00;101358.00;;;;2079080;28;20706;-56
2021/10/07 04:32:38;;;;;;;2.60;2.13;;;;;20.00;101350.00;;;;2079068;28;20497;-54
2021/10/07 04:33:39;;;;;;;2.33;2.17;;;;;20.00;101360.00;;;;2079054;28;20201;-56
2021/10/07 04:34:39;;;;;;;2.03;1.93;;;;;20.00;101364.00;;;;2079256;28;20205;-56
2021/10/07 04:35:40;;;;;;;2.33;2.13;;;;;20.00;101363.00;;;;2078828;28;20208;-56
2021/10/07 04:36:41;;;;;;;2.10;1.97;;;;;19.70;101366.00;;;;2080758;28;20286;-55
2021/10/07 04:37:42;;;;;;;2.28;2.13;;;;;20.00;101369.00;;;;2080400;28;20289;-56
2021/10/07 04:38:42;;;;;;;2.10;2.00;;;;;19.70;101366.00;;;;2079519;28;20224;-54
2021/10/07 04:39:43;;;;;;;2.30;2.10;;;;;20.00;101364.00;;;;2079082;28;20694;-56
2021/10/07 04:40:43;;;;;;;2.50;2.30;;;;;20.00;101362.00;;;;2079136;28;20209;-54
2021/10/07 04:41:43;;;;;;;2.00;1.90;;;;;20.00;101355.00;;;;2081529;28;20220;-55
2021/10/07 04:42:44;;;;;;;2.10;2.00;;;;;20.00;101355.00;;;;2079141;28;20279;-55
2021/10/07 04:43:44;;;;;;;2.53;2.33;;;;;20.00;101351.00;;;;2079002;28;20880;-56
2021/10/07 04:44:45;;;;;;;2.30;2.20;;;;;20.00;101361.00;;;;2078202;28;20217;-55
2021/10/07 04:45:45;;;;;;;2.00;1.90;;;;;19.80;101364.00;;;;2079174;28;20232;-56
2021/10/07 04:46:45;;;;;;;2.53;2.33;;;;;20.00;101360.00;;;;2079087;28;20217;-54
2021/10/07 04:47:46;;;;;;;2.70;2.27;;;;;20.00;101373.00;;;;2079187;28;20213;-54
2021/10/07 04:48:47;;;;;;;2.27;2.07;;;;;20.00;101373.00;;;;2078960;28;20573;-56
2021/10/07 04:49:47;;;;;;;2.00;1.90;;;;;20.00;101362.00;;;;2078569;28;20308;-54
2021/10/07 04:50:48;;;;;;;2.33;2.13;;;;;20.00;101369.00;;;;2079051;28;20224;-54
2021/10/07 04:51:48;;;;;;;2.20;2.00;;;;;20.00;101370.00;;;;2078998;28;20221;-57
2021/10/07 04:52:48;;;;;;;2.33;2.13;;;;;20.00;101368.00;;;;2078365;28;20217;-55
2021/10/07 04:53:49;;;;;;;2.73;2.30;;;;;20.00;101377.00;;;;2079118;28;20702;-56
2021/10/07 04:54:49;;;;;;;2.30;2.20;;;;;20.00;101376.00;;;;2078869;28;20308;-56
2021/10/07 04:55:55;;;;;;;2.50;2.30;;;;;20.00;101364.00;;;;2085275;28;20209;-54
2021/10/07 04:56:56;;;;;;;2.20;2.10;;;;;20.00;101376.00;;;;2085197;28;20690;-56
2021/10/07 04:57:56;;;;;;;2.30;2.10;;;;;20.00;101370.00;;;;2086657;28;20217;-56
2021/10/07 04:58:56;;;;;;;2.40;2.20;;;;;20.00;101367.00;;;;2086934;28;20471;-56
2021/10/07 04:59:57;;;;;;;2.33;2.00;;;;;20.00;101378.00;;;;2086988;28;20216;-56
2021/10/07 05:00:57;;;;;;;2.80;2.60;;;;;20.00;101383.00;;;;2087188;28;20224;-56
2021/10/07 05:01:57;;;;;;;2.00;1.90;;;;;20.00;101379.00;;;;2087150;28;20705;-56
2021/10/07 05:02:58;;;;;;;2.30;2.10;;;;;20.00;101385.00;;;;2087375;28;20646;-55
2021/10/07 05:03:59;;;;;;;2.40;2.20;;;;;20.00;101370.00;;;;2087409;28;20251;-56
2021/10/07 05:05:00;;;;;;;2.38;2.17;;;;;19.80;101384.00;;;;2086721;28;20271;-57